Woody Richerson — WDF9621 — position and weather

sailwx.info

Track history (hours):
 
Tides and Currents Weather Stations Pressure Air Temp Water Temp Dewpoint Dewpoint Depression Visibility Wind Speed Wind Dir Waves Ship Positions

Woody Richerson

Owner: Florida Marine, LLC, Mandeville, LA. More information available from US FCC via Universal Licensing System and Coast Guard Vessel Documentation Center.

Last reported at 2014-Dec-13 15:32 UTC. Time now 2014-Dec-19 22:44 UTC.
Position N 29°16' W 094°59'.

Length 27 m.

Type: Other ship. MMSI: 367507070.

Date/timePositionNaut miles runAvg speedWind from/ knotsBaromVisibWave heightAir tempDewpointWater temp
2014-Dec-13 15:32N 29°16' W 094°59'1 0.9
2014-Dec-13 14:33N 29°17' W 094°58'9 2.0
2014-Dec-13 10:10N 29°21' W 094°49'9 5.1
2014-Dec-13 08:29N 29°29' W 094°52'6 5.9
2014-Dec-13 07:33N 29°34' W 094°55'6 5.8
2014-Dec-13 06:33N 29°39' W 094°58'5 5.2
2014-Dec-13 05:33N 29°44' W 095°01'4 4.3
2014-Dec-13 04:33N 29°47' W 095°05'1 0.8
2014-Dec-13 03:33N 29°46' W 095°05'1 0.8
2014-Dec-13 02:33N 29°47' W 095°05'0 0.0
2014-Dec-13 00:33N 29°47' W 095°05'0 0.0
2014-Dec-12 23:33N 29°47' W 095°05'0 0.0
2014-Dec-12 22:33N 29°47' W 095°05'0 0.0
2014-Dec-12 21:33N 29°47' W 095°05'0 0.0
2014-Dec-12 20:33N 29°47' W 095°05'0 0.0
2014-Dec-12 19:33N 29°47' W 095°05'0 0.0
2014-Dec-12 18:23N 29°47' W 095°05'0 0.0
2014-Dec-12 17:33N 29°47' W 095°05'0 0.0
2014-Dec-12 16:33N 29°47' W 095°05'58255729.1
2014-Dec-12 15:32N 29°47' E 016°46'58255920.0
2014-Dec-12 14:33N 29°47' W 095°05'0 0.0
2014-Dec-12 13:33N 29°47' W 095°05'0 0.0
2014-Dec-12 12:33N 29°47' W 095°05'0 0.0
2014-Dec-12 11:33N 29°47' W 095°05'0 0.0
2014-Dec-12 10:33N 29°47' W 095°05'0 0.0
2014-Dec-12 09:33N 29°47' W 095°05'0 0.0
2014-Dec-12 08:33N 29°47' W 095°05'0 0.0
2014-Dec-12 07:33N 29°47' W 095°05'0 0.0
2014-Dec-12 06:33N 29°47' W 095°05'0 0.0
2014-Dec-12 05:32N 29°47' W 095°05'0 0.0
2014-Dec-12 04:33N 29°47' W 095°05'0 0.0
2014-Dec-12 03:33N 29°47' W 095°05'0 0.0
2014-Dec-12 02:33N 29°47' W 095°05'0 0.0
2014-Dec-12 01:33N 29°47' W 095°05'0 0.0
2014-Dec-12 00:33N 29°47' W 095°05'0 0.0
2014-Dec-11 23:33N 29°47' W 095°05'0 0.0
2014-Dec-11 22:33N 29°47' W 095°05'2 1.8
2014-Dec-11 21:33N 29°46' W 095°06'0 0.4
2014-Dec-11 20:33N 29°46' W 095°07'0 0.1
2014-Dec-11 19:33N 29°46' W 095°07'0 0.0
2014-Dec-11 18:33N 29°46' W 095°07'0 0.0
2014-Dec-11 17:33N 29°46' W 095°07'0 0.0
2014-Dec-11 16:33N 29°46' W 095°07'0 0.0
2014-Dec-11 15:33N 29°46' W 095°07'0 0.0
2014-Dec-11 14:33N 29°46' W 095°07'0 0.0
2014-Dec-11 13:33N 29°46' W 095°07'0 0.0
2014-Dec-11 12:30N 29°46' W 095°07'0 0.0
2014-Dec-11 11:32N 29°46' W 095°07'0 0.0
2014-Dec-11 10:33N 29°46' W 095°07'0 0.0
2014-Dec-11 09:33N 29°46' W 095°07'0 0.0
2014-Dec-11 08:33N 29°46' W 095°07'0 0.0
2014-Dec-11 07:33N 29°46' W 095°07'0 0.0
2014-Dec-11 06:32N 29°46' W 095°07'0 0.0
2014-Dec-11 05:33N 29°46' W 095°07'0 0.0
2014-Dec-11 04:33N 29°46' W 095°07'0 0.0
2014-Dec-11 03:33N 29°46' W 095°07'0 0.0
2014-Dec-11 02:33N 29°46' W 095°07'0 0.0
2014-Dec-11 01:33N 29°46' W 095°07'0 0.0
2014-Dec-11 00:34N 29°46' W 095°07'0 0.0
2014-Dec-10 23:33N 29°46' W 095°07'0 0.0
2014-Dec-10 22:33N 29°46' W 095°07'0 0.0
2014-Dec-10 21:33N 29°46' W 095°07'0 0.0
2014-Dec-10 20:33N 29°46' W 095°07'0 0.0
2014-Dec-10 19:33N 29°46' W 095°07'0 0.0
2014-Dec-10 18:33N 29°46' W 095°07'0 0.0
2014-Dec-10 17:33N 29°46' W 095°07'0 0.0
2014-Dec-10 16:33N 29°46' W 095°07'0 0.0
2014-Dec-10 15:33N 29°46' W 095°07'0 0.0
2014-Dec-10 14:33N 29°46' W 095°07'0 0.0
2014-Dec-10 13:33N 29°46' W 095°07'0 0.0
2014-Dec-10 12:33N 29°46' W 095°07'0 0.0
2014-Dec-10 11:33N 29°46' W 095°07'0 0.0
2014-Dec-10 10:33N 29°46' W 095°07'0 0.0
2014-Dec-10 09:33N 29°46' W 095°07'0 0.0
2014-Dec-10 08:33N 29°46' W 095°07'0 0.0
2014-Dec-10 07:33N 29°46' W 095°07'0 0.0
2014-Dec-10 06:33N 29°46' W 095°07'0 0.0
2014-Dec-10 05:33N 29°46' W 095°07'0 0.0
2014-Dec-10 04:33N 29°46' W 095°07'0 0.0
2014-Dec-10 03:33N 29°46' W 095°07'0 0.0
2014-Dec-10 02:33N 29°46' W 095°07'0 0.0
2014-Dec-10 01:33N 29°46' W 095°07'0 0.0
2014-Dec-10 00:33N 29°46' W 095°07'0 0.0
2014-Dec-09 23:33N 29°46' W 095°07'2 1.6
2014-Dec-09 22:33N 29°46' W 095°05'1 1.4
2014-Dec-09 21:33N 29°46' W 095°06'0 0.3
2014-Dec-09 20:33N 29°46' W 095°07'0 0.0
2014-Dec-09 19:33N 29°46' W 095°07'0 0.0
2014-Dec-09 18:33N 29°46' W 095°07'0 0.0
2014-Dec-09 17:33N 29°46' W 095°07'0 0.0
2014-Dec-09 16:33N 29°46' W 095°07'0 0.0
2014-Dec-09 15:33N 29°46' W 095°07'0 0.0
2014-Dec-09 14:33N 29°46' W 095°07'0 0.0
2014-Dec-09 13:33N 29°46' W 095°07'0 0.0
2014-Dec-09 12:33N 29°46' W 095°07'0 0.0
2014-Dec-09 11:33N 29°46' W 095°07'0 0.0
2014-Dec-09 10:24N 29°46' W 095°07'0 0.0
2014-Dec-09 09:33N 29°46' W 095°07'0 0.0
2014-Dec-09 08:33N 29°46' W 095°07'0 0.0
2014-Dec-09 07:33N 29°46' W 095°07'0 0.0
2014-Dec-09 06:33N 29°46' W 095°07'0 0.0
2014-Dec-09 05:33N 29°46' W 095°07'0 0.0
2014-Dec-09 04:33N 29°46' W 095°07'0 0.0
2014-Dec-09 03:33N 29°46' W 095°07'0 0.0
2014-Dec-09 02:33N 29°46' W 095°07'0 0.0
2014-Dec-09 01:33N 29°46' W 095°07'0 0.1
2014-Dec-09 00:33N 29°46' W 095°07'2 2.0
2014-Dec-08 23:33N 29°47' W 095°05'1 0.8
2014-Dec-08 22:34N 29°46' W 095°05'2 1.6
2014-Dec-08 21:33N 29°46' W 095°07'0 0.0
2014-Dec-08 20:33N 29°46' W 095°07'0 0.1
2014-Dec-08 19:33N 29°46' W 095°07'1 0.6
2014-Dec-08 18:31N 29°45' W 095°06'0 0.0
2014-Dec-08 17:33N 29°45' W 095°06'1 0.7
2014-Dec-08 16:33N 29°46' W 095°07'0 0.0
2014-Dec-08 15:33N 29°46' W 095°07'0 0.0
2014-Dec-08 14:33N 29°46' W 095°07'0 0.0
2014-Dec-08 13:33N 29°46' W 095°07'0 0.0
2014-Dec-08 12:33N 29°46' W 095°07'0 0.0
2014-Dec-08 11:33N 29°46' W 095°07'0 0.0
2014-Dec-08 10:33N 29°46' W 095°07'0 0.0
2014-Dec-08 09:33N 29°46' W 095°07'0 0.0
2014-Dec-08 08:33N 29°46' W 095°07'0 0.0
2014-Dec-08 07:33N 29°46' W 095°07'0 0.0
2014-Dec-08 06:33N 29°46' W 095°07'0 0.0
2014-Dec-08 05:33N 29°46' W 095°07'3 2.9
2014-Dec-08 04:34N 29°47' W 095°04'2 2.1
2014-Dec-08 03:33N 29°46' W 095°05'4 4.3
2014-Dec-08 02:33N 29°45' W 095°10'3 3.0
2014-Dec-08 01:33N 29°44' W 095°13'0 0.0
2014-Dec-08 00:33N 29°44' W 095°13'0 0.0
2014-Dec-07 23:33N 29°44' W 095°13'0 0.0
2014-Dec-07 22:33N 29°44' W 095°13'0 0.0
2014-Dec-07 21:33N 29°44' W 095°13'0 0.0
2014-Dec-07 20:33N 29°44' W 095°13'0 0.0
2014-Dec-07 19:33N 29°44' W 095°13'0 0.0
2014-Dec-07 14:32N 29°44' W 095°13'0 0.0
2014-Dec-07 13:31N 29°44' W 095°13'0 0.0
2014-Dec-07 06:25N 29°44' W 095°13'0 0.0
2014-Dec-07 05:33N 29°44' W 095°13'0 0.0
2014-Dec-07 04:33N 29°44' W 095°13'0 0.0
2014-Dec-07 03:33N 29°44' W 095°13'0 0.0
2014-Dec-07 02:33N 29°44' W 095°13'0 0.0
2014-Dec-07 01:33N 29°44' W 095°13'0 0.0
2014-Dec-07 00:33N 29°44' W 095°13'0 0.0
2014-Dec-06 23:33N 29°44' W 095°13'0 0.0
2014-Dec-06 22:33N 29°44' W 095°13'0 0.0
2014-Dec-06 21:33N 29°44' W 095°13'0 0.0
2014-Dec-06 20:33N 29°44' W 095°13'0 0.0
2014-Dec-06 19:33N 29°44' W 095°13'0 0.0
2014-Dec-06 18:33N 29°44' W 095°13'0 0.1
2014-Dec-06 17:33N 29°44' W 095°13'1 1.0
2014-Dec-06 16:33N 29°44' W 095°12'4 4.3
2014-Dec-06 15:33N 29°44' W 095°07'5 4.5
2014-Dec-06 14:33N 29°47' W 095°04'0 0.1
2014-Dec-06 13:33N 29°47' W 095°04'0 0.0
2014-Dec-06 12:33N 29°47' W 095°04'0 0.3
2014-Dec-06 11:33N 29°47' W 095°04'2 1.9
2014-Dec-06 10:30N 29°46' W 095°06'0 0.0
2014-Dec-06 09:33N 29°46' W 095°06'0 0.0
2014-Dec-06 08:30N 29°46' W 095°06'0 0.0
2014-Dec-06 07:32N 29°46' W 095°06'0 0.0
2014-Dec-06 06:24N 29°46' W 095°06'0 0.0
2014-Dec-06 05:19N 29°46' W 095°06'0 0.0
2014-Dec-06 04:23N 29°46' W 095°06'0 0.0
2014-Dec-06 03:17N 29°46' W 095°06'0 0.0
2014-Dec-06 02:32N 29°46' W 095°06'0 0.0
2014-Dec-06 01:06N 29°46' W 095°06'0 0.0
2014-Dec-06 00:10N 29°46' W 095°06'0 0.0
2014-Dec-05 23:26N 29°46' W 095°06'0 0.0
2014-Dec-05 22:28N 29°46' W 095°06'0 0.0
2014-Dec-05 21:33N 29°46' W 095°06'0 0.0
2014-Dec-05 20:31N 29°46' W 095°06'0 0.0
2014-Dec-05 19:27N 29°46' W 095°06'0 0.0
2014-Dec-05 15:30N 29°46' W 095°06'0 0.0
2014-Dec-05 14:32N 29°46' W 095°06'0 0.0
2014-Dec-04 21:26N 29°46' W 095°06'0 0.0
2014-Dec-04 20:33N 29°46' W 095°06'0 0.0
2014-Dec-04 19:33N 29°46' W 095°06'0 0.0
2014-Dec-04 18:33N 29°46' W 095°06'0 0.0
2014-Dec-04 17:25N 29°46' W 095°06'0 0.0
2014-Dec-04 15:29N 29°46' W 095°06'0 0.0
2014-Dec-04 14:32N 29°46' W 095°06'0 0.0
2014-Dec-03 15:32N 29°46' W 095°06'  
Track history (hours):
 
Tides and Currents Weather Stations Pressure Air Temp Water Temp Dewpoint Dewpoint Depression Visibility Wind Speed Wind Dir Waves Ship Positions

Woody Richerson

Owner: Florida Marine, LLC, Mandeville, LA. More information available from US FCC via Universal Licensing System and Coast Guard Vessel Documentation Center.

Last reported at 2014-Dec-13 15:32 UTC. Time now 2014-Dec-19 22:44 UTC.
Position N 29°16' W 094°59'.

Length 27 m.

Type: Other ship. MMSI: 367507070.

Date/timePositionNaut miles runAvg speedWind from/ knotsBaromVisibWave heightAir tempDewpointWater temp
2014-Dec-13 15:32N 29°16' W 094°59'1 0.9
2014-Dec-13 14:33N 29°17' W 094°58'9 2.0
2014-Dec-13 10:10N 29°21' W 094°49'9 5.1
2014-Dec-13 08:29N 29°29' W 094°52'6 5.9
2014-Dec-13 07:33N 29°34' W 094°55'6 5.8
2014-Dec-13 06:33N 29°39' W 094°58'5 5.2
2014-Dec-13 05:33N 29°44' W 095°01'4 4.3
2014-Dec-13 04:33N 29°47' W 095°05'1 0.8
2014-Dec-13 03:33N 29°46' W 095°05'1 0.8
2014-Dec-13 02:33N 29°47' W 095°05'0 0.0
2014-Dec-13 00:33N 29°47' W 095°05'0 0.0
2014-Dec-12 23:33N 29°47' W 095°05'0 0.0
2014-Dec-12 22:33N 29°47' W 095°05'0 0.0
2014-Dec-12 21:33N 29°47' W 095°05'0 0.0
2014-Dec-12 20:33N 29°47' W 095°05'0 0.0
2014-Dec-12 19:33N 29°47' W 095°05'0 0.0
2014-Dec-12 18:23N 29°47' W 095°05'0 0.0
2014-Dec-12 17:33N 29°47' W 095°05'0 0.0
2014-Dec-12 16:33N 29°47' W 095°05'58255729.1
2014-Dec-12 15:32N 29°47' E 016°46'58255920.0
2014-Dec-12 14:33N 29°47' W 095°05'0 0.0
2014-Dec-12 13:33N 29°47' W 095°05'0 0.0
2014-Dec-12 12:33N 29°47' W 095°05'0 0.0
2014-Dec-12 11:33N 29°47' W 095°05'0 0.0
2014-Dec-12 10:33N 29°47' W 095°05'0 0.0
2014-Dec-12 09:33N 29°47' W 095°05'0 0.0
2014-Dec-12 08:33N 29°47' W 095°05'0 0.0
2014-Dec-12 07:33N 29°47' W 095°05'0 0.0
2014-Dec-12 06:33N 29°47' W 095°05'0 0.0
2014-Dec-12 05:32N 29°47' W 095°05'0 0.0
2014-Dec-12 04:33N 29°47' W 095°05'0 0.0
2014-Dec-12 03:33N 29°47' W 095°05'0 0.0
2014-Dec-12 02:33N 29°47' W 095°05'0 0.0
2014-Dec-12 01:33N 29°47' W 095°05'0 0.0
2014-Dec-12 00:33N 29°47' W 095°05'0 0.0
2014-Dec-11 23:33N 29°47' W 095°05'0 0.0
2014-Dec-11 22:33N 29°47' W 095°05'2 1.8
2014-Dec-11 21:33N 29°46' W 095°06'0 0.4
2014-Dec-11 20:33N 29°46' W 095°07'0 0.1
2014-Dec-11 19:33N 29°46' W 095°07'0 0.0
2014-Dec-11 18:33N 29°46' W 095°07'0 0.0
2014-Dec-11 17:33N 29°46' W 095°07'0 0.0
2014-Dec-11 16:33N 29°46' W 095°07'0 0.0
2014-Dec-11 15:33N 29°46' W 095°07'0 0.0
2014-Dec-11 14:33N 29°46' W 095°07'0 0.0
2014-Dec-11 13:33N 29°46' W 095°07'0 0.0
2014-Dec-11 12:30N 29°46' W 095°07'0 0.0
2014-Dec-11 11:32N 29°46' W 095°07'0 0.0
2014-Dec-11 10:33N 29°46' W 095°07'0 0.0
2014-Dec-11 09:33N 29°46' W 095°07'0 0.0
2014-Dec-11 08:33N 29°46' W 095°07'0 0.0
2014-Dec-11 07:33N 29°46' W 095°07'0 0.0
2014-Dec-11 06:32N 29°46' W 095°07'0 0.0
2014-Dec-11 05:33N 29°46' W 095°07'0 0.0
2014-Dec-11 04:33N 29°46' W 095°07'0 0.0
2014-Dec-11 03:33N 29°46' W 095°07'0 0.0
2014-Dec-11 02:33N 29°46' W 095°07'0 0.0
2014-Dec-11 01:33N 29°46' W 095°07'0 0.0
2014-Dec-11 00:34N 29°46' W 095°07'0 0.0
2014-Dec-10 23:33N 29°46' W 095°07'0 0.0
2014-Dec-10 22:33N 29°46' W 095°07'0 0.0
2014-Dec-10 21:33N 29°46' W 095°07'0 0.0
2014-Dec-10 20:33N 29°46' W 095°07'0 0.0
2014-Dec-10 19:33N 29°46' W 095°07'0 0.0
2014-Dec-10 18:33N 29°46' W 095°07'0 0.0
2014-Dec-10 17:33N 29°46' W 095°07'0 0.0
2014-Dec-10 16:33N 29°46' W 095°07'0 0.0
2014-Dec-10 15:33N 29°46' W 095°07'0 0.0
2014-Dec-10 14:33N 29°46' W 095°07'0 0.0
2014-Dec-10 13:33N 29°46' W 095°07'0 0.0
2014-Dec-10 12:33N 29°46' W 095°07'0 0.0
2014-Dec-10 11:33N 29°46' W 095°07'0 0.0
2014-Dec-10 10:33N 29°46' W 095°07'0 0.0
2014-Dec-10 09:33N 29°46' W 095°07'0 0.0
2014-Dec-10 08:33N 29°46' W 095°07'0 0.0
2014-Dec-10 07:33N 29°46' W 095°07'0 0.0
2014-Dec-10 06:33N 29°46' W 095°07'0 0.0
2014-Dec-10 05:33N 29°46' W 095°07'0 0.0
2014-Dec-10 04:33N 29°46' W 095°07'0 0.0
2014-Dec-10 03:33N 29°46' W 095°07'0 0.0
2014-Dec-10 02:33N 29°46' W 095°07'0 0.0
2014-Dec-10 01:33N 29°46' W 095°07'0 0.0
2014-Dec-10 00:33N 29°46' W 095°07'0 0.0
2014-Dec-09 23:33N 29°46' W 095°07'2 1.6
2014-Dec-09 22:33N 29°46' W 095°05'1 1.4
2014-Dec-09 21:33N 29°46' W 095°06'0 0.3
2014-Dec-09 20:33N 29°46' W 095°07'0 0.0
2014-Dec-09 19:33N 29°46' W 095°07'0 0.0
2014-Dec-09 18:33N 29°46' W 095°07'0 0.0
2014-Dec-09 17:33N 29°46' W 095°07'0 0.0
2014-Dec-09 16:33N 29°46' W 095°07'0 0.0
2014-Dec-09 15:33N 29°46' W 095°07'0 0.0
2014-Dec-09 14:33N 29°46' W 095°07'0 0.0
2014-Dec-09 13:33N 29°46' W 095°07'0 0.0
2014-Dec-09 12:33N 29°46' W 095°07'0 0.0
2014-Dec-09 11:33N 29°46' W 095°07'0 0.0
2014-Dec-09 10:24N 29°46' W 095°07'0 0.0
2014-Dec-09 09:33N 29°46' W 095°07'0 0.0
2014-Dec-09 08:33N 29°46' W 095°07'0 0.0
2014-Dec-09 07:33N 29°46' W 095°07'0 0.0
2014-Dec-09 06:33N 29°46' W 095°07'0 0.0
2014-Dec-09 05:33N 29°46' W 095°07'0 0.0
2014-Dec-09 04:33N 29°46' W 095°07'0 0.0
2014-Dec-09 03:33N 29°46' W 095°07'0 0.0
2014-Dec-09 02:33N 29°46' W 095°07'0 0.0
2014-Dec-09 01:33N 29°46' W 095°07'0 0.1
2014-Dec-09 00:33N 29°46' W 095°07'2 2.0
2014-Dec-08 23:33N 29°47' W 095°05'1 0.8
2014-Dec-08 22:34N 29°46' W 095°05'2 1.6
2014-Dec-08 21:33N 29°46' W 095°07'0 0.0
2014-Dec-08 20:33N 29°46' W 095°07'0 0.1
2014-Dec-08 19:33N 29°46' W 095°07'1 0.6
2014-Dec-08 18:31N 29°45' W 095°06'0 0.0
2014-Dec-08 17:33N 29°45' W 095°06'1 0.7
2014-Dec-08 16:33N 29°46' W 095°07'0 0.0
2014-Dec-08 15:33N 29°46' W 095°07'0 0.0
2014-Dec-08 14:33N 29°46' W 095°07'0 0.0
2014-Dec-08 13:33N 29°46' W 095°07'0 0.0
2014-Dec-08 12:33N 29°46' W 095°07'0 0.0
2014-Dec-08 11:33N 29°46' W 095°07'0 0.0
2014-Dec-08 10:33N 29°46' W 095°07'0 0.0
2014-Dec-08 09:33N 29°46' W 095°07'0 0.0
2014-Dec-08 08:33N 29°46' W 095°07'0 0.0
2014-Dec-08 07:33N 29°46' W 095°07'0 0.0
2014-Dec-08 06:33N 29°46' W 095°07'0 0.0
2014-Dec-08 05:33N 29°46' W 095°07'3 2.9
2014-Dec-08 04:34N 29°47' W 095°04'2 2.1
2014-Dec-08 03:33N 29°46' W 095°05'4 4.3
2014-Dec-08 02:33N 29°45' W 095°10'3 3.0
2014-Dec-08 01:33N 29°44' W 095°13'0 0.0
2014-Dec-08 00:33N 29°44' W 095°13'0 0.0
2014-Dec-07 23:33N 29°44' W 095°13'0 0.0
2014-Dec-07 22:33N 29°44' W 095°13'0 0.0
2014-Dec-07 21:33N 29°44' W 095°13'0 0.0
2014-Dec-07 20:33N 29°44' W 095°13'0 0.0
2014-Dec-07 19:33N 29°44' W 095°13'0 0.0
2014-Dec-07 14:32N 29°44' W 095°13'0 0.0
2014-Dec-07 13:31N 29°44' W 095°13'0 0.0
2014-Dec-07 06:25N 29°44' W 095°13'0 0.0
2014-Dec-07 05:33N 29°44' W 095°13'0 0.0
2014-Dec-07 04:33N 29°44' W 095°13'0 0.0
2014-Dec-07 03:33N 29°44' W 095°13'0 0.0
2014-Dec-07 02:33N 29°44' W 095°13'0 0.0
2014-Dec-07 01:33N 29°44' W 095°13'0 0.0
2014-Dec-07 00:33N 29°44' W 095°13'0 0.0
2014-Dec-06 23:33N 29°44' W 095°13'0 0.0
2014-Dec-06 22:33N 29°44' W 095°13'0 0.0
2014-Dec-06 21:33N 29°44' W 095°13'0 0.0
2014-Dec-06 20:33N 29°44' W 095°13'0 0.0
2014-Dec-06 19:33N 29°44' W 095°13'0 0.0
2014-Dec-06 18:33N 29°44' W 095°13'0 0.1
2014-Dec-06 17:33N 29°44' W 095°13'1 1.0
2014-Dec-06 16:33N 29°44' W 095°12'4 4.3
2014-Dec-06 15:33N 29°44' W 095°07'5 4.5
2014-Dec-06 14:33N 29°47' W 095°04'0 0.1
2014-Dec-06 13:33N 29°47' W 095°04'0 0.0
2014-Dec-06 12:33N 29°47' W 095°04'0 0.3
2014-Dec-06 11:33N 29°47' W 095°04'2 1.9
2014-Dec-06 10:30N 29°46' W 095°06'0 0.0
2014-Dec-06 09:33N 29°46' W 095°06'0 0.0
2014-Dec-06 08:30N 29°46' W 095°06'0 0.0
2014-Dec-06 07:32N 29°46' W 095°06'0 0.0
2014-Dec-06 06:24N 29°46' W 095°06'0 0.0
2014-Dec-06 05:19N 29°46' W 095°06'0 0.0
2014-Dec-06 04:23N 29°46' W 095°06'0 0.0
2014-Dec-06 03:17N 29°46' W 095°06'0 0.0
2014-Dec-06 02:32N 29°46' W 095°06'0 0.0
2014-Dec-06 01:06N 29°46' W 095°06'0 0.0
2014-Dec-06 00:10N 29°46' W 095°06'0 0.0
2014-Dec-05 23:26N 29°46' W 095°06'0 0.0
2014-Dec-05 22:28N 29°46' W 095°06'0 0.0
2014-Dec-05 21:33N 29°46' W 095°06'0 0.0
2014-Dec-05 20:31N 29°46' W 095°06'0 0.0
2014-Dec-05 19:27N 29°46' W 095°06'0 0.0
2014-Dec-05 15:30N 29°46' W 095°06'0 0.0
2014-Dec-05 14:32N 29°46' W 095°06'0 0.0
2014-Dec-04 21:26N 29°46' W 095°06'0 0.0
2014-Dec-04 20:33N 29°46' W 095°06'0 0.0
2014-Dec-04 19:33N 29°46' W 095°06'0 0.0
2014-Dec-04 18:33N 29°46' W 095°06'0 0.0
2014-Dec-04 17:25N 29°46' W 095°06'0 0.0
2014-Dec-04 15:29N 29°46' W 095°06'0 0.0
2014-Dec-04 14:32N 29°46' W 095°06'0 0.0
2014-Dec-03 15:32N 29°46' W 095°06'  

Dump ship's entire track history